Time;durP1;ratioP1;P1;durP2;ratioP2;P2;SDS_P1;SDS_P2;PMS_P1;PMS_P2;Temp;Humidity;BMP_temperature;BMP_pressure;BME280_temperature;BME280_humidity;BME280_pressure;Samples;Min_cycle;Max_cycle;Signal;HPM_P1;HPM_P2
2023/03/07 00:00:12;;;;;;;;;;;;;;;1.12;90.60;99008.13;106264;1278;25638;-59
2023/03/07 00:03:01;;;;;;;;;;;;;;;1.11;90.50;99003.54;106314;1278;25393;-59
2023/03/07 00:05:30;;;;;;;;;;;;;;;1.12;90.60;99001.77;106369;1263;22484;-59
2023/03/07 00:08:00;;;;;;;;;;;;;;;1.14;90.56;99001.39;106429;1274;25442;-60
2023/03/07 00:10:29;;;;;;;;;;;;;;;1.16;90.49;99003.21;106332;1277;22629;-59
2023/03/07 00:12:58;;;;;;;;;;;;;;;1.16;90.52;99000.39;106362;1277;22517;-60
2023/03/07 00:15:28;;;;;;;;;;;;;;;1.16;90.36;99004.39;106374;1273;22514;-60
2023/03/07 00:17:57;;;;;;;;;;;;;;;1.16;90.33;98998.80;106307;1277;23086;-59
2023/03/07 00:20:26;;;;;;;;;;;;;;;1.17;90.34;99003.80;106248;1277;24248;-60
2023/03/07 00:22:55;;;;;;;;;;;;;;;1.17;90.31;99004.04;106282;1278;25292;-58
2023/03/07 00:25:25;;;;;;;;;;;;;;;1.17;90.26;99005.93;106283;1263;22502;-59
2023/03/07 00:27:54;;;;;;;;;;;;;;;1.17;90.25;99001.54;106323;1276;22509;-59
2023/03/07 00:30:23;;;;;;;;;;;;;;;1.18;90.23;99003.38;106276;1272;23022;-59
2023/03/07 00:32:52;;;;;;;;;;;;;;;1.18;90.18;99000.23;106604;1278;24263;-60
2023/03/07 00:35:21;;;;;;;;;;;;;;;1.18;90.17;98994.73;106266;1274;22497;-60
2023/03/07 00:37:51;;;;;;;;;;;;;;;1.19;90.22;98995.16;106174;1270;25531;-60
2023/03/07 00:40:20;;;;;;;;;;;;;;;1.19;90.32;98991.24;106186;1275;27488;-60
2023/03/07 00:42:49;;;;;;;;;;;;;;;1.18;90.29;98986.56;106280;1264;22518;-60
2023/03/07 00:45:19;;;;;;;;;;;;;;;1.16;90.36;98983.48;106267;1273;25268;-60
2023/03/07 00:47:48;;;;;;;;;;;;;;;1.17;90.39;98985.41;106292;1278;25547;-59
2023/03/07 00:50:17;;;;;;;;;;;;;;;1.18;90.44;98990.27;106323;1271;22515;-60
2023/03/07 00:52:46;;;;;;;;;;;;;;;1.18;90.52;98984.39;106387;1273;24282;-60
2023/03/07 00:55:16;;;;;;;;;;;;;;;1.18;90.56;98985.73;106296;1276;22635;-60
2023/03/07 00:57:45;;;;;;;;;;;;;;;1.18;90.60;98977.69;106264;1270;22501;-60
2023/03/07 01:00:15;;;;;;;;;;;;;;;1.16;90.74;98978.40;106367;1272;24312;-57
2023/03/07 01:02:44;;;;;;;;;;;;;;;1.13;90.89;98974.27;106312;1278;24228;-61
2023/03/07 01:05:14;;;;;;;;;;;;;;;1.11;90.97;98972.62;106338;1260;22577;-59
2023/03/07 01:07:44;;;;;;;;;;;;;;;1.09;91.03;98965.61;106265;1272;22514;-58
2023/03/07 01:10:13;;;;;;;;;;;;;;;1.07;91.21;98962.67;106276;1272;23871;-60
2023/03/07 01:12:42;;;;;;;;;;;;;;;1.07;91.26;98959.95;106381;1273;22501;-59
2023/03/07 01:15:12;;;;;;;;;;;;;;;1.05;91.43;98958.44;106268;1273;25651;-60
2023/03/07 01:17:41;;;;;;;;;;;;;;;1.05;91.48;98954.66;106561;1273;22502;-59
2023/03/07 01:20:12;;;;;;;;;;;;;;;1.06;91.52;98947.02;106309;1273;22559;-59
2023/03/07 01:22:41;;;;;;;;;;;;;;;1.06;91.66;98945.61;106238;1276;22516;-59
2023/03/07 01:25:12;;;;;;;;;;;;;;;1.06;91.63;98944.66;106265;1264;25391;-60
2023/03/07 01:27:41;;;;;;;;;;;;;;;1.05;91.70;98939.60;106431;1274;24260;-60
2023/03/07 01:30:11;;;;;;;;;;;;;;;1.04;91.76;98938.36;106218;1278;25363;-59
2023/03/07 01:32:40;;;;;;;;;;;;;;;1.04;91.76;98938.14;106329;1278;24285;-60
2023/03/07 01:35:10;;;;;;;;;;;;;;;1.03;91.86;98931.02;106405;1264;22616;-59
2023/03/07 01:37:40;;;;;;;;;;;;;;;1.02;91.80;98929.16;106319;1264;24236;-59
2023/03/07 01:40:10;;;;;;;;;;;;;;;1.03;91.86;98923.11;106311;1264;25463;-60
2023/03/07 01:42:40;;;;;;;;;;;;;;;1.03;91.89;98916.13;106396;1276;22716;-60
2023/03/07 01:45:23;;;;;;;;;;;;;;;1.01;91.76;98914.16;106364;1263;22647;-60
2023/03/07 01:47:52;;;;;;;;;;;;;;;1.00;91.85;98908.07;106249;1274;24578;-59
2023/03/07 01:50:21;;;;;;;;;;;;;;;1.01;91.93;98911.55;106272;1273;24275;-60
2023/03/07 01:52:52;;;;;;;;;;;;;;;1.01;91.95;98909.20;106291;1277;24259;-59
2023/03/07 01:55:24;;;;;;;;;;;;;;;0.99;91.94;98904.92;106239;1276;22538;-60
2023/03/07 01:57:54;;;;;;;;;;;;;;;0.97;91.89;98904.48;106085;1278;24289;-60
2023/03/07 02:00:27;;;;;;;;;;;;;;;0.96;91.91;98901.20;106220;1264;26450;-60
2023/03/07 02:03:00;;;;;;;;;;;;;;;0.95;91.88;98902.20;106391;1278;22507;-60
2023/03/07 02:05:32;;;;;;;;;;;;;;;0.94;91.98;98898.20;106487;1272;25380;-62
2023/03/07 02:08:03;;;;;;;;;;;;;;;0.95;91.95;98899.86;106306;1278;22974;-59
2023/03/07 02:10:32;;;;;;;;;;;;;;;0.94;92.05;98898.86;106284;1278;22498;-61
2023/03/07 02:13:02;;;;;;;;;;;;;;;0.92;92.16;98900.09;106482;1278;22503;-60
2023/03/07 02:15:33;;;;;;;;;;;;;;;0.92;92.18;98902.05;106283;1278;22630;-60
2023/03/07 02:18:03;;;;;;;;;;;;;;;0.92;92.18;98898.29;106407;1278;24219;-59
2023/03/07 02:20:39;;;;;;;;;;;;;;;0.92;92.21;98904.73;106411;1275;22434;-61
2023/03/07 02:23:12;;;;;;;;;;;;;;;0.91;92.26;98902.16;106300;1276;22564;-61
2023/03/07 02:25:44;;;;;;;;;;;;;;;0.89;92.23;98900.66;106448;1263;22546;-59
2023/03/07 02:28:16;;;;;;;;;;;;;;;0.87;92.21;98900.67;106411;1276;24236;-60
2023/03/07 02:30:54;;;;;;;;;;;;;;;0.84;92.20;98895.18;106340;1264;22582;-62
2023/03/07 02:33:23;;;;;;;;;;;;;;;0.81;92.15;98892.48;106541;1263;23454;-59
2023/03/07 02:35:55;;;;;;;;;;;;;;;0.78;92.23;98891.00;106504;1278;25428;-58
2023/03/07 02:38:25;;;;;;;;;;;;;;;0.77;92.25;98893.39;106248;1278;22691;-57
2023/03/07 02:40:55;;;;;;;;;;;;;;;0.76;92.37;98891.23;106383;1274;22628;-59
2023/03/07 02:43:24;;;;;;;;;;;;;;;0.76;92.33;98889.36;106609;1267;22528;-60
2023/03/07 02:45:54;;;;;;;;;;;;;;;0.75;92.42;98883.27;106289;1271;24219;-60
2023/03/07 02:48:23;;;;;;;;;;;;;;;0.73;92.31;98882.46;106386;1264;25344;-59
2023/03/07 02:50:52;;;;;;;;;;;;;;;0.69;92.45;98878.02;106297;1278;22579;-59
2023/03/07 02:53:22;;;;;;;;;;;;;;;0.67;92.43;98874.02;106198;1278;22617;-59
2023/03/07 02:55:52;;;;;;;;;;;;;;;0.67;92.45;98874.36;106142;1271;25392;-60
2023/03/07 02:58:21;;;;;;;;;;;;;;;0.67;92.43;98867.52;106276;1278;22507;-59
2023/03/07 03:00:50;;;;;;;;;;;;;;;0.66;92.30;98864.27;106182;1278;24251;-58
2023/03/07 03:03:19;;;;;;;;;;;;;;;0.66;92.31;98857.94;106301;1278;22550;-59
2023/03/07 03:05:49;;;;;;;;;;;;;;;0.64;92.19;98855.96;106264;1278;22509;-60
2023/03/07 03:08:18;;;;;;;;;;;;;;;0.62;92.39;98858.75;106416;1271;24296;-60
2023/03/07 03:10:51;;;;;;;;;;;;;;;0.61;92.24;98858.27;106302;1278;24063;-59
2023/03/07 03:13:20;;;;;;;;;;;;;;;0.56;92.10;98860.31;106293;1274;22514;-59
2023/03/07 03:15:54;;;;;;;;;;;;;;;0.52;92.22;98857.72;106173;1278;22645;-59
2023/03/07 03:18:24;;;;;;;;;;;;;;;0.48;92.27;98857.14;106302;1278;25389;-60
2023/03/07 03:20:53;;;;;;;;;;;;;;;0.41;92.25;98855.27;106390;1278;22512;-59
2023/03/07 03:23:22;;;;;;;;;;;;;;;0.37;92.50;98859.00;106659;1263;24705;-59
2023/03/07 03:25:59;;;;;;;;;;;;;;;0.34;92.61;98859.88;106177;1273;24391;-59
2023/03/07 03:28:29;;;;;;;;;;;;;;;0.34;92.69;98854.87;106423;1276;24269;-59
2023/03/07 03:30:59;;;;;;;;;;;;;;;0.30;92.65;98849.35;106334;1264;22650;-60
2023/03/07 03:33:29;;;;;;;;;;;;;;;0.28;92.66;98852.23;106351;1272;24761;-59
2023/03/07 03:35:58;;;;;;;;;;;;;;;0.28;92.75;98847.92;106370;1278;22497;-59
2023/03/07 03:38:28;;;;;;;;;;;;;;;0.25;92.76;98846.08;106298;1278;25509;-59
2023/03/07 03:40:57;;;;;;;;;;;;;;;0.26;92.88;98840.96;106455;1271;24260;-61
2023/03/07 03:43:26;;;;;;;;;;;;;;;0.26;92.95;98837.35;106391;1272;22550;-59
2023/03/07 03:45:56;;;;;;;;;;;;;;;0.24;92.76;98832.77;106405;1265;22921;-58
2023/03/07 03:48:26;;;;;;;;;;;;;;;0.24;92.86;98828.86;106400;1278;25388;-59
2023/03/07 03:51:01;;;;;;;;;;;;;;;0.22;92.80;98825.17;106364;1278;22573;-59
2023/03/07 03:53:31;;;;;;;;;;;;;;;0.21;92.84;98826.21;106502;1267;24218;-59
2023/03/07 03:56:04;;;;;;;;;;;;;;;0.19;92.78;98823.00;106452;1267;24391;-57
2023/03/07 03:58:34;;;;;;;;;;;;;;;0.16;92.85;98822.80;106429;1271;22509;-59
2023/03/07 04:01:04;;;;;;;;;;;;;;;0.14;92.98;98820.28;106379;1277;24669;-59
2023/03/07 04:03:34;;;;;;;;;;;;;;;0.12;92.96;98819.08;106371;1278;22501;-58
2023/03/07 04:06:04;;;;;;;;;;;;;;;0.09;93.00;98815.18;106378;1277;22945;-60
2023/03/07 04:08:33;;;;;;;;;;;;;;;0.07;93.10;98809.83;106550;1277;25315;-59
2023/03/07 04:11:03;;;;;;;;;;;;;;;0.08;93.08;98808.86;106366;1267;22486;-60
2023/03/07 04:13:33;;;;;;;;;;;;;;;0.08;93.09;98808.18;106406;1277;22621;-60
2023/03/07 04:16:02;;;;;;;;;;;;;;;0.09;93.19;98803.50;106391;1271;22617;-60
2023/03/07 04:18:31;;;;;;;;;;;;;;;0.10;93.12;98805.73;106364;1271;22504;-60
2023/03/07 04:21:01;;;;;;;;;;;;;;;0.10;93.13;98805.13;106356;1278;25398;-60
2023/03/07 04:23:30;;;;;;;;;;;;;;;0.12;92.97;98797.91;106309;1264;22678;-62
2023/03/07 04:26:00;;;;;;;;;;;;;;;0.13;92.87;98793.41;106188;1278;22531;-60
2023/03/07 04:28:41;;;;;;;;;;;;;;;0.13;92.79;98797.02;106409;1274;25457;-60
2023/03/07 04:31:11;;;;;;;;;;;;;;;0.14;92.82;98800.13;106265;1265;22533;-60
2023/03/07 04:33:40;;;;;;;;;;;;;;;0.16;92.63;98805.55;106373;1274;24303;-59
2023/03/07 04:36:10;;;;;;;;;;;;;;;0.16;92.61;98799.73;106404;1272;25294;-58
2023/03/07 04:38:40;;;;;;;;;;;;;;;0.17;92.54;98797.81;106298;1278;22518;-59
2023/03/07 04:41:11;;;;;;;;;;;;;;;0.17;92.60;98797.89;106331;1271;22512;-59
2023/03/07 04:43:40;;;;;;;;;;;;;;;0.16;92.61;98795.67;106265;1278;22651;-60
2023/03/07 04:46:10;;;;;;;;;;;;;;;0.14;92.52;98792.84;106225;1265;24194;-60
2023/03/07 04:48:39;;;;;;;;;;;;;;;0.12;92.57;98794.45;106270;1275;22507;-60
2023/03/07 04:51:08;;;;;;;;;;;;;;;0.11;92.53;98787.12;106296;1264;22517;-60
2023/03/07 04:53:38;;;;;;;;;;;;;;;0.10;92.61;98784.80;106363;1278;25420;-60
2023/03/07 04:56:08;;;;;;;;;;;;;;;0.10;92.69;98781.73;106183;1271;22523;-60
2023/03/07 04:58:38;;;;;;;;;;;;;;;0.10;92.63;98774.30;106340;1271;22497;-59
2023/03/07 05:01:08;;;;;;;;;;;;;;;0.10;92.71;98771.56;106370;1262;22514;-60
2023/03/07 05:03:37;;;;;;;;;;;;;;;0.12;92.80;98768.13;106386;1278;25439;-59
2023/03/07 05:06:07;;;;;;;;;;;;;;;0.12;92.74;98763.50;106253;1277;22611;-59
2023/03/07 05:08:36;;;;;;;;;;;;;;;0.13;92.86;98761.58;106462;1262;24260;-60
2023/03/07 05:11:06;;;;;;;;;;;;;;;0.13;92.98;98756.86;106428;1265;22515;-59
2023/03/07 05:13:35;;;;;;;;;;;;;;;0.13;92.86;98750.58;106362;1262;24376;-60
2023/03/07 05:16:05;;;;;;;;;;;;;;;0.14;92.83;98749.16;106379;1272;24224;-57
2023/03/07 05:18:34;;;;;;;;;;;;;;;0.14;92.96;98746.65;106273;1264;22640;-57
2023/03/07 05:21:04;;;;;;;;;;;;;;;0.14;93.20;98740.29;106245;1271;22515;-56
2023/03/07 05:23:33;;;;;;;;;;;;;;;0.16;93.27;98742.95;106365;1271;22501;-55
2023/03/07 05:26:02;;;;;;;;;;;;;;;0.16;93.33;98741.30;106273;1264;25923;-56
2023/03/07 05:28:32;;;;;;;;;;;;;;;0.18;93.42;98740.02;106119;1271;22512;-57
2023/03/07 05:31:02;;;;;;;;;;;;;;;0.17;93.48;98737.20;106327;1272;24440;-60
2023/03/07 05:33:31;;;;;;;;;;;;;;;0.17;93.67;98739.79;106435;1272;24268;-60
2023/03/07 05:36:02;;;;;;;;;;;;;;;0.18;93.85;98737.65;106367;1277;24292;-58
2023/03/07 05:38:31;;;;;;;;;;;;;;;0.19;93.95;98732.08;106249;1277;25088;-60
2023/03/07 05:41:02;;;;;;;;;;;;;;;0.20;94.02;98729.73;106166;1264;24380;-56
2023/03/07 05:43:35;;;;;;;;;;;;;;;0.23;93.99;98729.10;106120;1268;22498;-60
2023/03/07 05:46:05;;;;;;;;;;;;;;;0.23;94.11;98726.42;106216;1278;22566;-60
2023/03/07 05:48:34;;;;;;;;;;;;;;;0.25;94.15;98729.09;106247;1278;22501;-60
2023/03/07 05:51:03;;;;;;;;;;;;;;;0.26;94.07;98725.75;106276;1278;25397;-59
2023/03/07 05:53:33;;;;;;;;;;;;;;;0.27;94.12;98724.92;106365;1267;25344;-60
2023/03/07 05:56:02;;;;;;;;;;;;;;;0.28;94.07;98722.24;106428;1278;25319;-58
2023/03/07 05:58:31;;;;;;;;;;;;;;;0.27;93.98;98717.55;106352;1272;24199;-59
2023/03/07 06:01:01;;;;;;;;;;;;;;;0.27;93.86;98718.13;106363;1277;22723;-58
2023/03/07 06:03:30;;;;;;;;;;;;;;;0.26;93.86;98711.16;110253;1267;23280;-60
2023/03/07 06:05:59;;;;;;;;;;;;;;;0.26;93.84;98710.31;106572;1271;22511;-61
2023/03/07 06:08:28;;;;;;;;;;;;;;;0.26;93.77;98708.18;106276;1265;22547;-58
2023/03/07 06:10:58;;;;;;;;;;;;;;;0.28;93.98;98705.54;106949;1278;24274;-57
2023/03/07 06:13:27;;;;;;;;;;;;;;;0.31;93.92;98702.30;106359;1275;22549;-56
2023/03/07 06:15:57;;;;;;;;;;;;;;;0.32;93.87;98701.60;106180;1278;22624;-59
2023/03/07 06:18:26;;;;;;;;;;;;;;;0.35;93.87;98702.05;106448;1264;22504;-56
2023/03/07 06:20:57;;;;;;;;;;;;;;;0.37;93.99;98697.67;106615;1278;23288;-60
2023/03/07 06:23:26;;;;;;;;;;;;;;;0.40;93.87;98695.61;106925;1274;22512;-59
2023/03/07 06:25:56;;;;;;;;;;;;;;;0.42;93.98;98694.05;106822;1265;22594;-61
2023/03/07 06:28:25;;;;;;;;;;;;;;;0.45;93.94;98695.00;106818;1278;25279;-59
2023/03/07 06:30:54;;;;;;;;;;;;;;;0.48;93.97;98696.24;106793;1263;22575;-61
2023/03/07 06:33:23;;;;;;;;;;;;;;;0.50;94.03;98696.66;106847;1278;25355;-61
2023/03/07 06:35:53;;;;;;;;;;;;;;;0.53;93.94;98694.90;106916;1271;22514;-58
2023/03/07 06:38:22;;;;;;;;;;;;;;;0.55;93.83;98698.23;107012;1265;23901;-63
2023/03/07 06:40:56;;;;;;;;;;;;;;;0.58;93.75;98693.70;106893;1278;22644;-60
2023/03/07 06:43:25;;;;;;;;;;;;;;;0.61;93.72;98689.01;106874;1263;22523;-60
2023/03/07 06:45:55;;;;;;;;;;;;;;;0.64;93.67;98689.23;106878;1278;22501;-61
2023/03/07 06:48:25;;;;;;;;;;;;;;;0.66;93.67;98682.86;106775;1278;22519;-61
2023/03/07 06:50:54;;;;;;;;;;;;;;;0.68;93.65;98683.95;106864;1278;23387;-61
2023/03/07 06:53:23;;;;;;;;;;;;;;;0.71;93.69;98682.09;106894;1274;25408;-59
2023/03/07 06:55:53;;;;;;;;;;;;;;;0.75;93.63;98679.23;106888;1276;22514;-62
2023/03/07 06:58:22;;;;;;;;;;;;;;;0.80;93.69;98678.09;106803;1278;22501;-59
2023/03/07 07:00:51;;;;;;;;;;;;;;;0.85;93.74;98678.27;106893;1274;22511;-60
2023/03/07 07:03:20;;;;;;;;;;;;;;;0.90;93.80;98677.48;106803;1278;22515;-61
2023/03/07 07:05:50;;;;;;;;;;;;;;;0.94;93.86;98674.23;106937;1278;25402;-61
2023/03/07 07:08:19;;;;;;;;;;;;;;;0.99;93.75;98671.45;106782;1275;24316;-60
2023/03/07 07:10:48;;;;;;;;;;;;;;;1.05;93.88;98668.33;106732;1278;24238;-59
2023/03/07 07:13:17;;;;;;;;;;;;;;;1.11;93.86;98668.22;106795;1278;22687;-60
2023/03/07 07:15:47;;;;;;;;;;;;;;;1.16;93.67;98664.58;106747;1271;23297;-59
2023/03/07 07:18:16;;;;;;;;;;;;;;;1.21;93.78;98665.77;106797;1278;22502;-59
2023/03/07 07:20:45;;;;;;;;;;;;;;;1.26;93.75;98664.79;106755;1271;25223;-61
2023/03/07 07:23:14;;;;;;;;;;;;;;;1.31;93.88;98657.29;106786;1275;24226;-60
2023/03/07 07:25:43;;;;;;;;;;;;;;;1.36;93.73;98652.05;106743;1278;22537;-61
2023/03/07 07:28:13;;;;;;;;;;;;;;;1.42;93.83;98646.77;106759;1267;22615;-60
2023/03/07 07:30:42;;;;;;;;;;;;;;;1.48;93.78;98648.70;106698;1278;24992;-59
2023/03/07 07:33:11;;;;;;;;;;;;;;;1.53;93.76;98647.00;106771;1272;24248;-59
2023/03/07 07:35:41;;;;;;;;;;;;;;;1.60;93.61;98649.33;106814;1278;23543;-59
2023/03/07 07:38:10;;;;;;;;;;;;;;;1.65;93.49;98646.83;106823;1278;23191;-60
2023/03/07 07:40:40;;;;;;;;;;;;;;;1.71;93.40;98644.64;106827;1278;24258;-61
2023/03/07 07:43:13;;;;;;;;;;;;;;;1.77;93.38;98647.26;106776;1271;23158;-59
2023/03/07 07:45:42;;;;;;;;;;;;;;;1.83;93.21;98645.83;106874;1274;22494;-61
2023/03/07 07:48:11;;;;;;;;;;;;;;;1.91;93.05;98647.20;106770;1278;24252;-60
2023/03/07 07:50:41;;;;;;;;;;;;;;;1.98;93.03;98649.67;106888;1278;22624;-60
2023/03/07 07:53:10;;;;;;;;;;;;;;;2.03;92.98;98643.23;106887;1278;25231;-60
2023/03/07 07:55:40;;;;;;;;;;;;;;;2.09;92.85;98644.14;106861;1278;22958;-60
2023/03/07 07:58:09;;;;;;;;;;;;;;;2.14;92.81;98638.31;106815;1278;25623;-60
2023/03/07 08:00:38;;;;;;;;;;;;;;;2.19;92.65;98636.98;106793;1274;23030;-61
2023/03/07 08:03:07;;;;;;;;;;;;;;;2.24;92.42;98631.48;106825;1278;24309;-61
2023/03/07 08:05:36;;;;;;;;;;;;;;;2.30;92.33;98627.83;106913;1278;22530;-60
2023/03/07 08:08:06;;;;;;;;;;;;;;;2.38;92.43;98623.16;106899;1264;25633;-61
2023/03/07 08:10:35;;;;;;;;;;;;;;;2.44;92.49;98614.11;106789;1278;22533;-61
2023/03/07 08:13:05;;;;;;;;;;;;;;;2.54;92.46;98614.23;106921;1275;25415;-60
2023/03/07 08:15:34;;;;;;;;;;;;;;;2.64;92.51;98608.58;106792;1275;22651;-59
2023/03/07 08:18:03;;;;;;;;;;;;;;;2.73;92.40;98606.39;106832;1278;23945;-60
2023/03/07 08:20:32;;;;;;;;;;;;;;;2.83;92.02;98601.70;106823;1272;22498;-60
2023/03/07 08:23:02;;;;;;;;;;;;;;;2.88;91.68;98593.50;106823;1275;22519;-59
2023/03/07 08:25:32;;;;;;;;;;;;;;;2.96;91.75;98596.55;106893;1274;25340;-61
2023/03/07 08:28:03;;;;;;;;;;;;;;;3.05;91.60;98596.95;106734;1271;22632;-61
2023/03/07 08:30:34;;;;;;;;;;;;;;;3.13;91.74;98589.99;106840;1278;24912;-61
2023/03/07 08:33:03;;;;;;;;;;;;;;;3.21;91.83;98586.92;106844;1274;22509;-61
2023/03/07 08:35:34;;;;;;;;;;;;;;;3.31;91.69;98583.08;106908;1278;22512;-60
2023/03/07 08:38:03;;;;;;;;;;;;;;;3.40;91.33;98582.80;106962;1274;25204;-61
2023/03/07 08:40:32;;;;;;;;;;;;;;;3.49;90.92;98581.67;106794;1275;22553;-60
2023/03/07 08:43:01;;;;;;;;;;;;;;;3.56;90.59;98581.73;106700;1274;22502;-62
2023/03/07 08:45:31;;;;;;;;;;;;;;;3.63;90.09;98575.89;106673;1267;22488;-61
2023/03/07 08:48:00;;;;;;;;;;;;;;;3.72;89.92;98582.05;106823;1278;24263;-62
2023/03/07 08:50:29;;;;;;;;;;;;;;;3.80;89.50;98575.17;106888;1278;22663;-61
2023/03/07 08:52:58;;;;;;;;;;;;;;;3.86;89.40;98578.05;106766;1278;22712;-60
2023/03/07 08:55:27;;;;;;;;;;;;;;;3.93;88.59;98581.80;106716;1271;228102;-60
2023/03/07 08:57:57;;;;;;;;;;;;;;;4.01;87.82;98580.95;106800;1274;22950;-59
2023/03/07 09:00:26;;;;;;;;;;;;;;;4.10;87.66;98578.69;106868;1274;22516;-60
2023/03/07 09:02:57;;;;;;;;;;;;;;;4.19;86.78;98574.62;106907;1278;22501;-62
2023/03/07 09:05:26;;;;;;;;;;;;;;;4.27;85.10;98573.14;106840;1274;24198;-59
2023/03/07 09:07:56;;;;;;;;;;;;;;;4.31;84.82;98579.38;106878;1265;22791;-60
2023/03/07 09:10:26;;;;;;;;;;;;;;;4.32;85.42;98572.29;106797;1274;22545;-61
2023/03/07 09:12:55;;;;;;;;;;;;;;;4.34;85.39;98567.60;106935;1278;24216;-59
2023/03/07 09:15:24;;;;;;;;;;;;;;;4.36;85.28;98571.05;106734;1278;22498;-62
2023/03/07 09:17:53;;;;;;;;;;;;;;;4.39;85.58;98567.58;106794;1278;22509;-59
2023/03/07 09:20:23;;;;;;;;;;;;;;;4.46;85.26;98564.77;106816;1278;22614;-62
2023/03/07 09:22:53;;;;;;;;;;;;;;;4.55;85.04;98558.34;106832;1278;22501;-61
2023/03/07 09:25:23;;;;;;;;;;;;;;;4.65;84.33;98552.96;106816;1278;22515;-62
2023/03/07 09:27:52;;;;;;;;;;;;;;;4.71;83.54;98554.52;106776;1264;23330;-61
2023/03/07 09:30:24;;;;;;;;;;;;;;;4.76;82.73;98555.89;106797;1272;24252;-61
2023/03/07 09:32:53;;;;;;;;;;;;;;;4.83;83.10;98550.83;107027;1278;24922;-61
2023/03/07 09:35:22;;;;;;;;;;;;;;;4.92;81.53;98552.27;106782;1278;23823;-61
2023/03/07 09:37:51;;;;;;;;;;;;;;;5.04;82.85;98551.59;106852;1274;22517;-62
2023/03/07 09:40:23;;;;;;;;;;;;;;;5.16;82.02;98553.35;106769;1278;23020;-61
2023/03/07 09:42:57;;;;;;;;;;;;;;;5.26;81.94;98548.59;106803;1271;22504;-61
2023/03/07 09:45:35;;;;;;;;;;;;;;;5.33;82.68;98545.33;106917;1271;22572;-57
2023/03/07 09:48:15;;;;;;;;;;;;;;;5.38;82.75;98546.34;106824;1264;24226;-59
2023/03/07 09:50:50;;;;;;;;;;;;;;;5.40;82.16;98544.70;106849;1278;24192;-59
2023/03/07 09:53:23;;;;;;;;;;;;;;;5.38;81.74;98542.81;106881;1265;25507;-59
2023/03/07 09:55:54;;;;;;;;;;;;;;;5.36;79.30;98541.59;106791;1277;22486;-61
2023/03/07 09:58:24;;;;;;;;;;;;;;;5.33;79.16;98543.41;106736;1271;23927;-61
2023/03/07 10:00:55;;;;;;;;;;;;;;;5.30;79.11;98541.36;106748;1265;22492;-59
2023/03/07 10:03:28;;;;;;;;;;;;;;;5.29;78.48;98541.78;106898;1272;22446;-59
2023/03/07 10:05:59;;;;;;;;;;;;;;;5.26;78.99;98533.55;106884;1278;25278;-63
2023/03/07 10:08:30;;;;;;;;;;;;;;;5.26;79.58;98538.93;106933;1278;22609;-59
2023/03/07 10:11:04;;;;;;;;;;;;;;;5.28;79.37;98528.20;107003;1278;22520;-59
2023/03/07 10:13:40;;;;;;;;;;;;;;;5.32;79.48;98535.59;106945;1267;22504;-60
2023/03/07 10:16:17;;;;;;;;;;;;;;;5.36;79.67;98536.91;106953;1272;25621;-59
2023/03/07 10:18:58;;;;;;;;;;;;;;;5.41;79.02;98538.58;106832;1271;25256;-60
2023/03/07 10:21:33;;;;;;;;;;;;;;;5.46;78.01;98534.51;106851;1263;25409;-61
2023/03/07 10:24:10;;;;;;;;;;;;;;;5.50;77.09;98530.78;106941;1278;22587;-61
2023/03/07 10:26:42;;;;;;;;;;;;;;;5.55;78.65;98530.23;106969;1268;22511;-58
2023/03/07 10:29:14;;;;;;;;;;;;;;;5.61;78.37;98527.79;106875;1265;22503;-61
2023/03/07 10:31:47;;;;;;;;;;;;;;;5.68;78.33;98529.08;106860;1278;22517;-60
2023/03/07 10:34:26;;;;;;;;;;;;;;;5.73;77.90;98529.88;107046;1265;22526;-60
2023/03/07 10:36:59;;;;;;;;;;;;;;;5.78;77.75;98525.95;106934;1274;22500;-59
2023/03/07 10:39:32;;;;;;;;;;;;;;;5.82;77.36;98522.12;106869;1272;25304;-59
2023/03/07 10:42:01;;;;;;;;;;;;;;;5.85;77.25;98517.23;106713;1278;22724;-61
2023/03/07 10:44:32;;;;;;;;;;;;;;;5.90;77.62;98517.84;106939;1278;22508;-59
2023/03/07 10:47:02;;;;;;;;;;;;;;;5.93;77.83;98521.00;106959;1278;25432;-60
2023/03/07 10:49:32;;;;;;;;;;;;;;;5.99;77.08;98521.83;107026;1272;22500;-61
2023/03/07 10:52:04;;;;;;;;;;;;;;;6.01;76.14;98518.05;106964;1278;22459;-61
2023/03/07 10:54:35;;;;;;;;;;;;;;;6.06;76.64;98514.12;107025;1264;25402;-61
2023/03/07 10:57:06;;;;;;;;;;;;;;;6.09;75.36;98517.48;106945;1278;22652;-61
2023/03/07 10:59:36;;;;;;;;;;;;;;;6.10;75.82;98515.58;107117;1278;22684;-61
2023/03/07 11:02:26;;;;;;;;;;;;;;;6.08;74.83;98509.21;107019;1278;22608;-62
2023/03/07 11:04:55;;;;;;;;;;;;;;;6.05;74.60;98503.27;106817;1265;22497;-58
2023/03/07 11:07:27;;;;;;;;;;;;;;;6.03;74.66;98504.27;106912;1278;22469;-62
2023/03/07 11:09:57;;;;;;;;;;;;;;;6.01;74.15;98508.09;106981;1271;22779;-60
2023/03/07 11:12:29;;;;;;;;;;;;;;;5.99;73.85;98499.65;107035;1270;25275;-61
2023/03/07 11:15:09;;;;;;;;;;;;;;;5.97;74.59;98498.58;107014;1278;23129;-61
2023/03/07 11:17:42;;;;;;;;;;;;;;;5.99;74.28;98496.36;107007;1278;22516;-60
2023/03/07 11:20:21;;;;;;;;;;;;;;;6.00;74.91;98487.23;107088;1278;22510;-60
2023/03/07 11:22:50;;;;;;;;;;;;;;;6.01;74.46;98488.30;106948;1272;24273;-61
2023/03/07 11:25:22;;;;;;;;;;;;;;;6.03;74.84;98480.41;106983;1278;25613;-61
2023/03/07 11:27:53;;;;;;;;;;;;;;;6.07;74.32;98480.48;106961;1278;22505;-62
2023/03/07 11:30:25;;;;;;;;;;;;;;;6.10;74.59;98479.95;107086;1256;25271;-62
2023/03/07 11:33:07;;;;;;;;;;;;;;;6.13;74.34;98481.64;107194;1278;22516;-61
2023/03/07 11:35:53;;;;;;;;;;;;;;;6.14;74.04;98480.09;106957;1278;22740;-60
2023/03/07 11:38:27;;;;;;;;;;;;;;;6.15;73.62;98479.09;106951;1265;22509;-60
2023/03/07 11:41:00;;;;;;;;;;;;;;;6.15;73.60;98474.27;107050;1278;22577;-59
2023/03/07 11:43:41;;;;;;;;;;;;;;;6.15;73.05;98472.63;107077;1265;24189;-61
2023/03/07 11:46:17;;;;;;;;;;;;;;;6.14;73.34;98471.17;106990;1279;22501;-60
2023/03/07 11:48:53;;;;;;;;;;;;;;;6.15;73.17;98470.23;107090;1278;22519;-59
2023/03/07 11:51:31;;;;;;;;;;;;;;;6.16;73.36;98467.16;106958;1264;25867;-60
2023/03/07 11:54:05;;;;;;;;;;;;;;;6.17;73.26;98465.10;107046;1278;22737;-59
2023/03/07 11:56:36;;;;;;;;;;;;;;;6.17;72.76;98467.41;107070;1278;25270;-62
2023/03/07 11:59:16;;;;;;;;;;;;;;;6.16;72.84;98462.83;107136;1271;22506;-62
2023/03/07 12:01:47;;;;;;;;;;;;;;;6.16;72.84;98462.92;106995;1274;24198;-58
2023/03/07 12:04:36;;;;;;;;;;;;;;;6.15;72.57;98464.53;106988;1264;24180;-60
2023/03/07 12:07:11;;;;;;;;;;;;;;;6.16;72.50;98460.15;106918;1278;24227;-61
2023/03/07 12:09:45;;;;;;;;;;;;;;;6.16;72.29;98446.81;107098;1268;24182;-61
2023/03/07 12:12:22;;;;;;;;;;;;;;;6.19;73.06;98447.80;107044;1271;23917;-62
2023/03/07 12:14:56;;;;;;;;;;;;;;;6.26;72.76;98447.24;107003;1275;25512;-59
2023/03/07 12:17:30;;;;;;;;;;;;;;;6.30;72.41;98445.15;106847;1271;23014;-60
2023/03/07 12:20:05;;;;;;;;;;;;;;;6.32;71.94;98438.36;106963;1268;22513;-61
2023/03/07 12:22:42;;;;;;;;;;;;;;;6.33;71.63;98439.33;106996;1278;24562;-59
2023/03/07 12:25:24;;;;;;;;;;;;;;;6.35;72.33;98433.95;106886;1272;22574;-61
2023/03/07 12:28:01;;;;;;;;;;;;;;;6.36;71.51;98425.64;107087;1271;24202;-61
2023/03/07 12:30:36;;;;;;;;;;;;;;;6.38;71.31;98424.84;106878;1278;22628;-61
2023/03/07 12:33:06;;;;;;;;;;;;;;;6.40;71.55;98426.12;107111;1278;22517;-62
2023/03/07 12:35:41;;;;;;;;;;;;;;;6.43;71.91;98423.61;106973;1278;22977;-60
2023/03/07 12:38:16;;;;;;;;;;;;;;;6.44;70.98;98420.60;106940;1278;25603;-60
2023/03/07 12:40:47;;;;;;;;;;;;;;;6.44;71.49;98411.27;107047;1272;22505;-62
2023/03/07 12:43:18;;;;;;;;;;;;;;;6.46;71.66;98413.11;107058;1274;25037;-62
2023/03/07 12:45:50;;;;;;;;;;;;;;;6.48;70.66;98413.57;106836;1272;22450;-62
2023/03/07 12:48:23;;;;;;;;;;;;;;;6.47;70.82;98410.15;107077;1265;22504;-62
2023/03/07 12:50:57;;;;;;;;;;;;;;;6.47;70.90;98413.52;106997;1278;22520;-60
2023/03/07 12:53:30;;;;;;;;;;;;;;;6.49;70.94;98412.12;106897;1265;22500;-62
2023/03/07 12:56:04;;;;;;;;;;;;;;;6.50;70.78;98409.90;106914;1278;23155;-61
2023/03/07 12:58:38;;;;;;;;;;;;;;;6.51;70.77;98407.59;106933;1278;22629;-62
2023/03/07 13:01:13;;;;;;;;;;;;;;;6.52;70.46;98409.71;107066;1278;25242;-59
2023/03/07 13:03:46;;;;;;;;;;;;;;;6.56;70.64;98403.78;106989;1272;22446;-61
2023/03/07 13:06:17;;;;;;;;;;;;;;;6.58;70.18;98401.66;106932;1278;24225;-60